sensor_id;sensor_type;location;lat;lon;timestamp;temperature;humidity
72883;DHT22;61017;37.812;-122.286;2024-01-30T00:00:38;16.80;87.90
72883;DHT22;61017;37.812;-122.286;2024-01-30T00:02:09;16.80;87.70
72883;DHT22;61017;37.812;-122.286;2024-01-30T00:03:40;16.80;87.90
72883;DHT22;61017;37.812;-122.286;2024-01-30T00:05:11;16.80;87.50
72883;DHT22;61017;37.812;-122.286;2024-01-30T00:06:43;16.80;87.70
72883;DHT22;61017;37.812;-122.286;2024-01-30T00:08:14;16.80;87.80
72883;DHT22;61017;37.812;-122.286;2024-01-30T00:09:48;16.80;87.80
72883;DHT22;61017;37.812;-122.286;2024-01-30T00:11:19;16.80;88.30
72883;DHT22;61017;37.812;-122.286;2024-01-30T00:12:50;16.80;87.50
72883;DHT22;61017;37.812;-122.286;2024-01-30T00:14:21;16.80;87.50
72883;DHT22;61017;37.812;-122.286;2024-01-30T00:15:52;16.80;87.60
72883;DHT22;61017;37.812;-122.286;2024-01-30T00:17:23;16.80;87.30
72883;DHT22;61017;37.812;-122.286;2024-01-30T00:18:54;16.80;87.20
72883;DHT22;61017;37.812;-122.286;2024-01-30T00:20:25;16.80;87.20
72883;DHT22;61017;37.812;-122.286;2024-01-30T00:21:57;16.80;87.30
72883;DHT22;61017;37.812;-122.286;2024-01-30T00:23:28;16.80;87.50
72883;DHT22;61017;37.812;-122.286;2024-01-30T00:24:59;16.80;87.30
72883;DHT22;61017;37.812;-122.286;2024-01-30T00:26:31;16.80;87.30
72883;DHT22;61017;37.812;-122.286;2024-01-30T00:28:02;16.80;87.30
72883;DHT22;61017;37.812;-122.286;2024-01-30T00:29:33;16.80;87.10
72883;DHT22;61017;37.812;-122.286;2024-01-30T00:31:04;16.80;87.20
72883;DHT22;61017;37.812;-122.286;2024-01-30T00:32:35;16.80;87.20
72883;DHT22;61017;37.812;-122.286;2024-01-30T00:34:06;16.80;87.50
72883;DHT22;61017;37.812;-122.286;2024-01-30T00:35:40;16.80;87.40
72883;DHT22;61017;37.812;-122.286;2024-01-30T00:37:11;16.80;87.50
72883;DHT22;61017;37.812;-122.286;2024-01-30T00:38:42;16.80;87.30
72883;DHT22;61017;37.812;-122.286;2024-01-30T00:40:14;16.80;87.20
72883;DHT22;61017;37.812;-122.286;2024-01-30T00:41:48;16.80;87.30
72883;DHT22;61017;37.812;-122.286;2024-01-30T00:43:19;16.80;87.50
72883;DHT22;61017;37.812;-122.286;2024-01-30T00:44:50;16.80;87.60
72883;DHT22;61017;37.812;-122.286;2024-01-30T00:46:21;16.80;87.50
72883;DHT22;61017;37.812;-122.286;2024-01-30T00:47:52;16.80;87.60
72883;DHT22;61017;37.812;-122.286;2024-01-30T00:49:23;16.80;87.60
72883;DHT22;61017;37.812;-122.286;2024-01-30T00:50:54;16.70;87.50
72883;DHT22;61017;37.812;-122.286;2024-01-30T00:52:25;16.70;87.50
72883;DHT22;61017;37.812;-122.286;2024-01-30T00:53:57;16.80;87.50
72883;DHT22;61017;37.812;-122.286;2024-01-30T00:55:28;16.80;87.50
72883;DHT22;61017;37.812;-122.286;2024-01-30T00:56:59;16.70;87.50
72883;DHT22;61017;37.812;-122.286;2024-01-30T00:58:30;16.70;87.20
72883;DHT22;61017;37.812;-122.286;2024-01-30T01:00:01;16.70;87.50
72883;DHT22;61017;37.812;-122.286;2024-01-30T01:01:32;16.80;87.70
72883;DHT22;61017;37.812;-122.286;2024-01-30T01:03:04;16.80;87.60
72883;DHT22;61017;37.812;-122.286;2024-01-30T01:04:35;16.80;87.60
72883;DHT22;61017;37.812;-122.286;2024-01-30T01:06:06;16.80;87.30
72883;DHT22;61017;37.812;-122.286;2024-01-30T01:07:37;16.80;87.30
72883;DHT22;61017;37.812;-122.286;2024-01-30T01:09:08;16.80;87.20
72883;DHT22;61017;37.812;-122.286;2024-01-30T01:10:39;16.80;87.30
72883;DHT22;61017;37.812;-122.286;2024-01-30T01:12:10;16.80;87.20
72883;DHT22;61017;37.812;-122.286;2024-01-30T01:13:42;16.80;87.30
72883;DHT22;61017;37.812;-122.286;2024-01-30T01:15:13;16.80;87.30
72883;DHT22;61017;37.812;-122.286;2024-01-30T01:16:44;16.80;87.10
72883;DHT22;61017;37.812;-122.286;2024-01-30T01:18:15;16.80;87.00
72883;DHT22;61017;37.812;-122.286;2024-01-30T01:19:46;16.80;87.30
72883;DHT22;61017;37.812;-122.286;2024-01-30T01:21:17;16.70;87.00
72883;DHT22;61017;37.812;-122.286;2024-01-30T01:22:48;16.70;86.90
72883;DHT22;61017;37.812;-122.286;2024-01-30T01:24:19;16.80;87.10
72883;DHT22;61017;37.812;-122.286;2024-01-30T01:25:50;16.80;87.10
72883;DHT22;61017;37.812;-122.286;2024-01-30T01:27:21;16.80;87.10
72883;DHT22;61017;37.812;-122.286;2024-01-30T01:28:52;16.80;86.80
72883;DHT22;61017;37.812;-122.286;2024-01-30T01:30:23;16.70;87.10
72883;DHT22;61017;37.812;-122.286;2024-01-30T01:31:55;16.80;87.00
72883;DHT22;61017;37.812;-122.286;2024-01-30T01:33:26;16.70;87.00
72883;DHT22;61017;37.812;-122.286;2024-01-30T01:34:57;16.80;86.90
72883;DHT22;61017;37.812;-122.286;2024-01-30T01:36:28;16.80;87.00
72883;DHT22;61017;37.812;-122.286;2024-01-30T01:37:59;16.80;87.20
72883;DHT22;61017;37.812;-122.286;2024-01-30T01:39:31;16.70;86.80
72883;DHT22;61017;37.812;-122.286;2024-01-30T01:41:02;16.70;86.80
72883;DHT22;61017;37.812;-122.286;2024-01-30T01:42:33;16.70;86.80
72883;DHT22;61017;37.812;-122.286;2024-01-30T01:44:05;16.70;86.70
72883;DHT22;61017;37.812;-122.286;2024-01-30T01:45:37;16.80;87.00
72883;DHT22;61017;37.812;-122.286;2024-01-30T01:47:08;16.70;86.70
72883;DHT22;61017;37.812;-122.286;2024-01-30T01:48:39;16.80;86.80
72883;DHT22;61017;37.812;-122.286;2024-01-30T01:50:10;16.80;86.90
72883;DHT22;61017;37.812;-122.286;2024-01-30T01:51:42;16.70;86.80
72883;DHT22;61017;37.812;-122.286;2024-01-30T01:53:13;16.70;86.80
72883;DHT22;61017;37.812;-122.286;2024-01-30T01:54:46;16.80;86.90
72883;DHT22;61017;37.812;-122.286;2024-01-30T01:56:17;16.70;86.80
72883;DHT22;61017;37.812;-122.286;2024-01-30T01:57:48;16.70;87.00
72883;DHT22;61017;37.812;-122.286;2024-01-30T01:59:19;16.70;87.00
72883;DHT22;61017;37.812;-122.286;2024-01-30T02:00:51;16.70;87.10
72883;DHT22;61017;37.812;-122.286;2024-01-30T02:02:22;16.70;87.00
72883;DHT22;61017;37.812;-122.286;2024-01-30T02:03:57;16.70;86.80
72883;DHT22;61017;37.812;-122.286;2024-01-30T02:05:30;16.70;87.10
72883;DHT22;61017;37.812;-122.286;2024-01-30T02:07:01;16.70;86.80
72883;DHT22;61017;37.812;-122.286;2024-01-30T02:08:32;16.70;86.90
72883;DHT22;61017;37.812;-122.286;2024-01-30T02:10:03;16.70;86.80
72883;DHT22;61017;37.812;-122.286;2024-01-30T02:11:34;16.70;86.80
72883;DHT22;61017;37.812;-122.286;2024-01-30T02:13:05;16.70;87.00
72883;DHT22;61017;37.812;-122.286;2024-01-30T02:14:46;16.70;86.80
72883;DHT22;61017;37.812;-122.286;2024-01-30T02:16:17;16.70;86.90
72883;DHT22;61017;37.812;-122.286;2024-01-30T02:17:48;16.70;86.90
72883;DHT22;61017;37.812;-122.286;2024-01-30T02:19:19;16.70;86.90
72883;DHT22;61017;37.812;-122.286;2024-01-30T02:20:50;16.70;87.00
72883;DHT22;61017;37.812;-122.286;2024-01-30T02:22:23;16.70;87.10
72883;DHT22;61017;37.812;-122.286;2024-01-30T02:23:55;16.70;87.00
72883;DHT22;61017;37.812;-122.286;2024-01-30T02:25:33;16.70;86.90
72883;DHT22;61017;37.812;-122.286;2024-01-30T02:27:04;16.70;87.00
72883;DHT22;61017;37.812;-122.286;2024-01-30T02:28:35;16.70;86.90
72883;DHT22;61017;37.812;-122.286;2024-01-30T02:30:06;16.70;86.90
72883;DHT22;61017;37.812;-122.286;2024-01-30T02:31:38;16.80;87.00
72883;DHT22;61017;37.812;-122.286;2024-01-30T02:33:09;16.70;86.90
72883;DHT22;61017;37.812;-122.286;2024-01-30T02:34:40;16.70;87.10
72883;DHT22;61017;37.812;-122.286;2024-01-30T02:36:11;16.70;87.00
72883;DHT22;61017;37.812;-122.286;2024-01-30T02:37:42;16.70;86.80
72883;DHT22;61017;37.812;-122.286;2024-01-30T02:39:13;16.70;87.00
72883;DHT22;61017;37.812;-122.286;2024-01-30T02:40:44;16.80;87.20
72883;DHT22;61017;37.812;-122.286;2024-01-30T02:42:15;16.70;87.40
72883;DHT22;61017;37.812;-122.286;2024-01-30T02:43:47;16.70;87.10
72883;DHT22;61017;37.812;-122.286;2024-01-30T02:45:21;16.70;87.10
72883;DHT22;61017;37.812;-122.286;2024-01-30T02:46:52;16.70;87.00
72883;DHT22;61017;37.812;-122.286;2024-01-30T02:48:23;16.70;87.20
72883;DHT22;61017;37.812;-122.286;2024-01-30T02:49:54;16.70;87.10
72883;DHT22;61017;37.812;-122.286;2024-01-30T02:51:25;16.70;87.20
72883;DHT22;61017;37.812;-122.286;2024-01-30T02:52:56;16.70;87.10
72883;DHT22;61017;37.812;-122.286;2024-01-30T02:54:27;16.70;87.20
72883;DHT22;61017;37.812;-122.286;2024-01-30T02:55:58;16.70;87.00
72883;DHT22;61017;37.812;-122.286;2024-01-30T02:57:30;16.70;87.10
72883;DHT22;61017;37.812;-122.286;2024-01-30T02:59:01;16.70;87.00
72883;DHT22;61017;37.812;-122.286;2024-01-30T03:00:32;16.70;87.20
72883;DHT22;61017;37.812;-122.286;2024-01-30T03:02:03;16.70;86.90
72883;DHT22;61017;37.812;-122.286;2024-01-30T03:03:34;16.70;87.10
72883;DHT22;61017;37.812;-122.286;2024-01-30T03:05:05;16.70;87.20
72883;DHT22;61017;37.812;-122.286;2024-01-30T03:06:36;16.70;87.00
72883;DHT22;61017;37.812;-122.286;2024-01-30T03:08:08;16.70;87.00
72883;DHT22;61017;37.812;-122.286;2024-01-30T03:09:39;16.70;86.70
72883;DHT22;61017;37.812;-122.286;2024-01-30T03:11:11;16.70;86.90
72883;DHT22;61017;37.812;-122.286;2024-01-30T03:12:42;16.70;87.10
72883;DHT22;61017;37.812;-122.286;2024-01-30T03:14:14;16.70;87.00
72883;DHT22;61017;37.812;-122.286;2024-01-30T03:15:45;16.70;86.90
72883;DHT22;61017;37.812;-122.286;2024-01-30T03:17:17;16.70;86.90
72883;DHT22;61017;37.812;-122.286;2024-01-30T03:18:48;16.70;86.50
72883;DHT22;61017;37.812;-122.286;2024-01-30T03:20:19;16.70;86.60
72883;DHT22;61017;37.812;-122.286;2024-01-30T03:21:50;16.70;86.60
72883;DHT22;61017;37.812;-122.286;2024-01-30T03:23:21;16.70;86.60
72883;DHT22;61017;37.812;-122.286;2024-01-30T03:24:52;16.70;86.50
72883;DHT22;61017;37.812;-122.286;2024-01-30T03:26:23;16.70;87.70
72883;DHT22;61017;37.812;-122.286;2024-01-30T03:27:54;16.70;86.60
72883;DHT22;61017;37.812;-122.286;2024-01-30T03:29:26;16.70;86.80
72883;DHT22;61017;37.812;-122.286;2024-01-30T03:30:57;16.70;86.80
72883;DHT22;61017;37.812;-122.286;2024-01-30T03:32:28;16.70;86.60
72883;DHT22;61017;37.812;-122.286;2024-01-30T03:33:59;16.70;86.70
72883;DHT22;61017;37.812;-122.286;2024-01-30T03:35:30;16.70;86.80
72883;DHT22;61017;37.812;-122.286;2024-01-30T03:37:01;16.70;86.50
72883;DHT22;61017;37.812;-122.286;2024-01-30T03:38:32;16.70;86.70
72883;DHT22;61017;37.812;-122.286;2024-01-30T03:40:03;16.70;86.70
72883;DHT22;61017;37.812;-122.286;2024-01-30T03:41:35;16.70;86.90
72883;DHT22;61017;37.812;-122.286;2024-01-30T03:43:06;16.70;86.80
72883;DHT22;61017;37.812;-122.286;2024-01-30T03:44:37;16.70;86.80
72883;DHT22;61017;37.812;-122.286;2024-01-30T03:46:08;16.70;86.80
72883;DHT22;61017;37.812;-122.286;2024-01-30T03:47:39;16.80;86.90
72883;DHT22;61017;37.812;-122.286;2024-01-30T03:49:13;16.70;86.70
72883;DHT22;61017;37.812;-122.286;2024-01-30T03:50:44;16.70;86.90
72883;DHT22;61017;37.812;-122.286;2024-01-30T03:52:16;16.70;86.60
72883;DHT22;61017;37.812;-122.286;2024-01-30T03:53:49;16.70;86.70
72883;DHT22;61017;37.812;-122.286;2024-01-30T03:55:20;16.70;86.60
72883;DHT22;61017;37.812;-122.286;2024-01-30T03:56:51;16.70;87.00
72883;DHT22;61017;37.812;-122.286;2024-01-30T03:58:23;16.70;87.00
72883;DHT22;61017;37.812;-122.286;2024-01-30T03:59:54;16.70;86.90
72883;DHT22;61017;37.812;-122.286;2024-01-30T04:01:25;16.70;87.10
72883;DHT22;61017;37.812;-122.286;2024-01-30T04:02:56;16.70;86.80
72883;DHT22;61017;37.812;-122.286;2024-01-30T04:04:27;16.70;86.90
72883;DHT22;61017;37.812;-122.286;2024-01-30T04:05:58;16.70;86.80
72883;DHT22;61017;37.812;-122.286;2024-01-30T04:07:29;16.70;86.80
72883;DHT22;61017;37.812;-122.286;2024-01-30T04:09:00;16.70;87.00
72883;DHT22;61017;37.812;-122.286;2024-01-30T04:10:31;16.70;86.90
72883;DHT22;61017;37.812;-122.286;2024-01-30T04:12:02;16.70;86.80
72883;DHT22;61017;37.812;-122.286;2024-01-30T04:13:34;16.70;86.80
72883;DHT22;61017;37.812;-122.286;2024-01-30T04:15:05;16.70;86.80
72883;DHT22;61017;37.812;-122.286;2024-01-30T04:16:36;16.70;87.70
72883;DHT22;61017;37.812;-122.286;2024-01-30T04:19:48;16.70;86.70
72883;DHT22;61017;37.812;-122.286;2024-01-30T04:21:20;16.70;86.80
72883;DHT22;61017;37.812;-122.286;2024-01-30T04:22:51;16.70;87.00
72883;DHT22;61017;37.812;-122.286;2024-01-30T04:24:22;16.70;86.80
72883;DHT22;61017;37.812;-122.286;2024-01-30T04:25:53;16.70;86.70
72883;DHT22;61017;37.812;-122.286;2024-01-30T04:27:24;16.70;86.70
72883;DHT22;61017;37.812;-122.286;2024-01-30T04:28:56;16.70;86.80
72883;DHT22;61017;37.812;-122.286;2024-01-30T04:30:27;16.70;87.00
72883;DHT22;61017;37.812;-122.286;2024-01-30T04:31:58;16.70;87.10
72883;DHT22;61017;37.812;-122.286;2024-01-30T04:33:29;16.70;86.70
72883;DHT22;61017;37.812;-122.286;2024-01-30T04:35:00;16.70;86.60
72883;DHT22;61017;37.812;-122.286;2024-01-30T04:36:31;16.70;86.70
72883;DHT22;61017;37.812;-122.286;2024-01-30T04:38:02;16.70;86.50
72883;DHT22;61017;37.812;-122.286;2024-01-30T04:39:33;16.70;86.80
72883;DHT22;61017;37.812;-122.286;2024-01-30T04:41:04;16.80;87.10
72883;DHT22;61017;37.812;-122.286;2024-01-30T04:42:35;16.70;86.70
72883;DHT22;61017;37.812;-122.286;2024-01-30T04:44:07;16.70;86.80
72883;DHT22;61017;37.812;-122.286;2024-01-30T04:45:38;16.70;86.50
72883;DHT22;61017;37.812;-122.286;2024-01-30T04:47:09;16.70;87.00
72883;DHT22;61017;37.812;-122.286;2024-01-30T04:48:40;16.80;89.40
72883;DHT22;61017;37.812;-122.286;2024-01-30T04:50:11;16.80;88.50
72883;DHT22;61017;37.812;-122.286;2024-01-30T04:51:42;16.70;88.10
72883;DHT22;61017;37.812;-122.286;2024-01-30T04:53:13;16.80;88.00
72883;DHT22;61017;37.812;-122.286;2024-01-30T04:54:44;16.70;88.10
72883;DHT22;61017;37.812;-122.286;2024-01-30T04:56:15;16.80;88.00
72883;DHT22;61017;37.812;-122.286;2024-01-30T04:57:46;16.70;87.80
72883;DHT22;61017;37.812;-122.286;2024-01-30T04:59:17;16.70;87.70
72883;DHT22;61017;37.812;-122.286;2024-01-30T05:00:49;16.70;87.50
72883;DHT22;61017;37.812;-122.286;2024-01-30T05:02:20;16.70;87.50
72883;DHT22;61017;37.812;-122.286;2024-01-30T05:03:51;16.70;87.20
72883;DHT22;61017;37.812;-122.286;2024-01-30T05:05:22;16.70;87.70
72883;DHT22;61017;37.812;-122.286;2024-01-30T05:06:53;16.70;87.60
72883;DHT22;61017;37.812;-122.286;2024-01-30T05:08:24;16.70;87.60
72883;DHT22;61017;37.812;-122.286;2024-01-30T05:09:55;16.70;87.60
72883;DHT22;61017;37.812;-122.286;2024-01-30T05:11:26;16.70;87.50
72883;DHT22;61017;37.812;-122.286;2024-01-30T05:12:57;16.70;87.30
72883;DHT22;61017;37.812;-122.286;2024-01-30T05:14:28;16.70;87.30
72883;DHT22;61017;37.812;-122.286;2024-01-30T05:16:01;16.70;87.20
72883;DHT22;61017;37.812;-122.286;2024-01-30T05:17:32;16.70;87.60
72883;DHT22;61017;37.812;-122.286;2024-01-30T05:19:03;16.70;87.80
72883;DHT22;61017;37.812;-122.286;2024-01-30T05:20:34;16.70;87.60
72883;DHT22;61017;37.812;-122.286;2024-01-30T05:22:05;16.70;87.60
72883;DHT22;61017;37.812;-122.286;2024-01-30T05:23:40;16.70;87.20
72883;DHT22;61017;37.812;-122.286;2024-01-30T05:25:12;16.80;87.80
72883;DHT22;61017;37.812;-122.286;2024-01-30T05:26:43;16.70;88.00
72883;DHT22;61017;37.812;-122.286;2024-01-30T05:28:14;16.70;87.70
72883;DHT22;61017;37.812;-122.286;2024-01-30T05:29:45;16.70;87.70
72883;DHT22;61017;37.812;-122.286;2024-01-30T05:31:16;16.70;87.80
72883;DHT22;61017;37.812;-122.286;2024-01-30T05:32:48;16.70;87.60
72883;DHT22;61017;37.812;-122.286;2024-01-30T05:34:19;16.70;87.50
72883;DHT22;61017;37.812;-122.286;2024-01-30T05:35:50;16.70;87.40
72883;DHT22;61017;37.812;-122.286;2024-01-30T05:37:22;16.70;87.80
72883;DHT22;61017;37.812;-122.286;2024-01-30T05:38:53;16.70;87.30
72883;DHT22;61017;37.812;-122.286;2024-01-30T05:40:24;16.70;87.70
72883;DHT22;61017;37.812;-122.286;2024-01-30T05:41:55;16.70;87.90
72883;DHT22;61017;37.812;-122.286;2024-01-30T05:43:26;16.80;87.00
72883;DHT22;61017;37.812;-122.286;2024-01-30T05:44:57;17.00;84.70
72883;DHT22;61017;37.812;-122.286;2024-01-30T05:46:28;17.20;82.20
72883;DHT22;61017;37.812;-122.286;2024-01-30T05:47:59;17.40;80.40
72883;DHT22;61017;37.812;-122.286;2024-01-30T05:49:30;17.50;79.30
72883;DHT22;61017;37.812;-122.286;2024-01-30T05:51:02;17.50;78.20
72883;DHT22;61017;37.812;-122.286;2024-01-30T05:52:33;17.50;77.60
72883;DHT22;61017;37.812;-122.286;2024-01-30T05:54:04;17.60;76.00
72883;DHT22;61017;37.812;-122.286;2024-01-30T05:55:35;17.70;75.30
72883;DHT22;61017;37.812;-122.286;2024-01-30T05:57:06;17.70;75.30
72883;DHT22;61017;37.812;-122.286;2024-01-30T05:58:37;17.80;74.10
72883;DHT22;61017;37.812;-122.286;2024-01-30T06:00:09;18.00;72.90
72883;DHT22;61017;37.812;-122.286;2024-01-30T06:01:46;18.00;72.70
72883;DHT22;61017;37.812;-122.286;2024-01-30T06:03:17;17.90;73.00
72883;DHT22;61017;37.812;-122.286;2024-01-30T06:04:48;17.80;73.20
72883;DHT22;61017;37.812;-122.286;2024-01-30T06:06:19;17.90;73.40
72883;DHT22;61017;37.812;-122.286;2024-01-30T06:07:51;17.70;74.80
72883;DHT22;61017;37.812;-122.286;2024-01-30T06:09:22;17.50;75.00
72883;DHT22;61017;37.812;-122.286;2024-01-30T06:10:53;17.70;73.40
72883;DHT22;61017;37.812;-122.286;2024-01-30T06:12:24;17.70;73.20
72883;DHT22;61017;37.812;-122.286;2024-01-30T06:13:55;17.90;72.20
72883;DHT22;61017;37.812;-122.286;2024-01-30T06:15:26;18.00;70.90
72883;DHT22;61017;37.812;-122.286;2024-01-30T06:16:57;18.00;70.30
72883;DHT22;61017;37.812;-122.286;2024-01-30T06:18:28;17.90;71.10
72883;DHT22;61017;37.812;-122.286;2024-01-30T06:19:59;17.70;73.30
72883;DHT22;61017;37.812;-122.286;2024-01-30T06:21:30;17.70;72.20
72883;DHT22;61017;37.812;-122.286;2024-01-30T06:23:01;17.90;70.80
72883;DHT22;61017;37.812;-122.286;2024-01-30T06:24:32;18.00;70.50
72883;DHT22;61017;37.812;-122.286;2024-01-30T06:26:03;18.20;69.40
72883;DHT22;61017;37.812;-122.286;2024-01-30T06:27:34;18.20;69.30
72883;DHT22;61017;37.812;-122.286;2024-01-30T06:29:05;18.30;68.20
72883;DHT22;61017;37.812;-122.286;2024-01-30T06:30:36;18.10;70.30
72883;DHT22;61017;37.812;-122.286;2024-01-30T06:32:07;17.80;71.40
72883;DHT22;61017;37.812;-122.286;2024-01-30T06:33:38;18.00;69.90
72883;DHT22;61017;37.812;-122.286;2024-01-30T06:35:09;18.20;68.90
72883;DHT22;61017;37.812;-122.286;2024-01-30T06:36:40;18.30;68.60
72883;DHT22;61017;37.812;-122.286;2024-01-30T06:38:11;18.30;68.90
72883;DHT22;61017;37.812;-122.286;2024-01-30T06:39:42;18.30;67.80
72883;DHT22;61017;37.812;-122.286;2024-01-30T06:41:14;18.40;68.60
72883;DHT22;61017;37.812;-122.286;2024-01-30T06:42:45;18.10;70.20
72883;DHT22;61017;37.812;-122.286;2024-01-30T06:44:16;18.10;69.30
72883;DHT22;61017;37.812;-122.286;2024-01-30T06:45:47;18.20;68.60
72883;DHT22;61017;37.812;-122.286;2024-01-30T06:47:18;18.40;68.20
72883;DHT22;61017;37.812;-122.286;2024-01-30T06:48:49;18.50;67.50
72883;DHT22;61017;37.812;-122.286;2024-01-30T06:50:20;18.50;67.00
72883;DHT22;61017;37.812;-122.286;2024-01-30T06:51:52;18.50;66.60
72883;DHT22;61017;37.812;-122.286;2024-01-30T06:53:23;18.30;68.90
72883;DHT22;61017;37.812;-122.286;2024-01-30T06:54:54;18.00;70.20
72883;DHT22;61017;37.812;-122.286;2024-01-30T06:56:25;18.20;68.90
72883;DHT22;61017;37.812;-122.286;2024-01-30T06:57:56;18.30;69.20
72883;DHT22;61017;37.812;-122.286;2024-01-30T06:59:27;18.30;68.10
72883;DHT22;61017;37.812;-122.286;2024-01-30T07:00:58;18.40;67.30
72883;DHT22;61017;37.812;-122.286;2024-01-30T07:02:29;18.50;66.90
72883;DHT22;61017;37.812;-122.286;2024-01-30T07:04:00;18.50;67.90
72883;DHT22;61017;37.812;-122.286;2024-01-30T07:05:31;18.20;69.10
72883;DHT22;61017;37.812;-122.286;2024-01-30T07:07:03;18.10;69.10
72883;DHT22;61017;37.812;-122.286;2024-01-30T07:08:34;18.30;68.20
72883;DHT22;61017;37.812;-122.286;2024-01-30T07:10:05;18.40;69.30
72883;DHT22;61017;37.812;-122.286;2024-01-30T07:11:37;18.40;67.40
72883;DHT22;61017;37.812;-122.286;2024-01-30T07:13:08;18.50;66.60
72883;DHT22;61017;37.812;-122.286;2024-01-30T07:14:39;18.60;66.50
72883;DHT22;61017;37.812;-122.286;2024-01-30T07:16:10;18.40;68.50
72883;DHT22;61017;37.812;-122.286;2024-01-30T07:17:41;18.10;69.50
72883;DHT22;61017;37.812;-122.286;2024-01-30T07:19:12;18.20;69.00
72883;DHT22;61017;37.812;-122.286;2024-01-30T07:20:43;18.40;67.70
72883;DHT22;61017;37.812;-122.286;2024-01-30T07:22:14;18.60;66.50
72883;DHT22;61017;37.812;-122.286;2024-01-30T07:23:45;18.60;66.40
72883;DHT22;61017;37.812;-122.286;2024-01-30T07:25:16;18.70;66.00
72883;DHT22;61017;37.812;-122.286;2024-01-30T07:26:48;18.60;68.80
72883;DHT22;61017;37.812;-122.286;2024-01-30T07:28:19;18.30;68.60
72883;DHT22;61017;37.812;-122.286;2024-01-30T07:29:50;18.30;68.30
72883;DHT22;61017;37.812;-122.286;2024-01-30T07:31:21;18.50;67.90
72883;DHT22;61017;37.812;-122.286;2024-01-30T07:32:52;18.50;66.60
72883;DHT22;61017;37.812;-122.286;2024-01-30T07:34:23;18.60;66.10
72883;DHT22;61017;37.812;-122.286;2024-01-30T07:35:54;18.70;65.60
72883;DHT22;61017;37.812;-122.286;2024-01-30T07:37:25;18.70;65.80
72883;DHT22;61017;37.812;-122.286;2024-01-30T07:38:56;18.50;68.80
72883;DHT22;61017;37.812;-122.286;2024-01-30T07:40:27;18.20;69.10
72883;DHT22;61017;37.812;-122.286;2024-01-30T07:41:58;18.40;68.00
72883;DHT22;61017;37.812;-122.286;2024-01-30T07:43:29;18.50;67.10
72883;DHT22;61017;37.812;-122.286;2024-01-30T07:45:00;18.60;66.10
72883;DHT22;61017;37.812;-122.286;2024-01-30T07:46:31;18.70;65.50
72883;DHT22;61017;37.812;-122.286;2024-01-30T07:48:02;18.70;65.00
72883;DHT22;61017;37.812;-122.286;2024-01-30T07:49:33;18.70;66.80
72883;DHT22;61017;37.812;-122.286;2024-01-30T07:51:04;18.40;68.20
72883;DHT22;61017;37.812;-122.286;2024-01-30T07:52:35;18.40;66.90
72883;DHT22;61017;37.812;-122.286;2024-01-30T07:54:07;18.60;66.10
72883;DHT22;61017;37.812;-122.286;2024-01-30T07:55:38;18.70;65.70
72883;DHT22;61017;37.812;-122.286;2024-01-30T07:57:09;18.80;65.40
72883;DHT22;61017;37.812;-122.286;2024-01-30T07:58:40;18.70;66.40
72883;DHT22;61017;37.812;-122.286;2024-01-30T08:00:11;18.70;65.40
72883;DHT22;61017;37.812;-122.286;2024-01-30T08:01:43;18.50;67.50
72883;DHT22;61017;37.812;-122.286;2024-01-30T08:03:14;18.30;69.30
72883;DHT22;61017;37.812;-122.286;2024-01-30T08:04:45;18.40;67.70
72883;DHT22;61017;37.812;-122.286;2024-01-30T08:06:16;18.40;67.90
72883;DHT22;61017;37.812;-122.286;2024-01-30T08:07:47;18.60;66.50
72883;DHT22;61017;37.812;-122.286;2024-01-30T08:09:20;18.60;65.90
72883;DHT22;61017;37.812;-122.286;2024-01-30T08:10:51;18.70;65.70
72883;DHT22;61017;37.812;-122.286;2024-01-30T08:12:22;18.60;68.80
72883;DHT22;61017;37.812;-122.286;2024-01-30T08:13:53;18.40;68.70
72883;DHT22;61017;37.812;-122.286;2024-01-30T08:15:24;18.20;69.30
72883;DHT22;61017;37.812;-122.286;2024-01-30T08:16:55;18.50;67.70
72883;DHT22;61017;37.812;-122.286;2024-01-30T08:18:26;18.60;66.60
72883;DHT22;61017;37.812;-122.286;2024-01-30T08:19:57;18.70;66.40
72883;DHT22;61017;37.812;-122.286;2024-01-30T08:21:28;18.80;65.70
72883;DHT22;61017;37.812;-122.286;2024-01-30T08:22:59;18.80;65.20
72883;DHT22;61017;37.812;-122.286;2024-01-30T08:24:30;18.60;68.50
72883;DHT22;61017;37.812;-122.286;2024-01-30T08:26:01;18.40;68.10
72883;DHT22;61017;37.812;-122.286;2024-01-30T08:27:32;18.50;66.50
72883;DHT22;61017;37.812;-122.286;2024-01-30T08:29:03;18.70;66.70
72883;DHT22;61017;37.812;-122.286;2024-01-30T08:30:34;18.80;65.90
72883;DHT22;61017;37.812;-122.286;2024-01-30T08:32:06;18.80;65.10
72883;DHT22;61017;37.812;-122.286;2024-01-30T08:33:37;18.80;65.20
72883;DHT22;61017;37.812;-122.286;2024-01-30T08:35:08;18.70;66.40
72883;DHT22;61017;37.812;-122.286;2024-01-30T08:36:39;18.50;68.30
72883;DHT22;61017;37.812;-122.286;2024-01-30T08:38:10;18.30;69.20
72883;DHT22;61017;37.812;-122.286;2024-01-30T08:39:42;18.50;66.90
72883;DHT22;61017;37.812;-122.286;2024-01-30T08:41:13;18.60;66.50
72883;DHT22;61017;37.812;-122.286;2024-01-30T08:42:44;18.50;68.20
72883;DHT22;61017;37.812;-122.286;2024-01-30T08:44:15;18.20;68.20
72883;DHT22;61017;37.812;-122.286;2024-01-30T08:45:46;18.00;69.30
72883;DHT22;61017;37.812;-122.286;2024-01-30T08:47:17;17.90;69.80
72883;DHT22;61017;37.812;-122.286;2024-01-30T08:48:48;17.80;70.20
72883;DHT22;61017;37.812;-122.286;2024-01-30T08:50:20;17.70;70.70
72883;DHT22;61017;37.812;-122.286;2024-01-30T08:51:51;17.60;71.40
72883;DHT22;61017;37.812;-122.286;2024-01-30T08:53:22;17.60;72.10
72883;DHT22;61017;37.812;-122.286;2024-01-30T08:54:53;17.60;72.80
72883;DHT22;61017;37.812;-122.286;2024-01-30T08:56:24;17.50;73.10
72883;DHT22;61017;37.812;-122.286;2024-01-30T08:57:55;17.50;73.60
72883;DHT22;61017;37.812;-122.286;2024-01-30T08:59:26;17.50;74.10
72883;DHT22;61017;37.812;-122.286;2024-01-30T09:00:58;17.40;74.10
72883;DHT22;61017;37.812;-122.286;2024-01-30T09:02:29;17.40;74.60
72883;DHT22;61017;37.812;-122.286;2024-01-30T09:04:00;17.40;74.90
72883;DHT22;61017;37.812;-122.286;2024-01-30T09:05:31;17.40;75.60
72883;DHT22;61017;37.812;-122.286;2024-01-30T09:07:02;17.40;75.70
72883;DHT22;61017;37.812;-122.286;2024-01-30T09:08:33;17.40;75.90
72883;DHT22;61017;37.812;-122.286;2024-01-30T09:10:06;17.30;76.00
72883;DHT22;61017;37.812;-122.286;2024-01-30T09:11:37;17.30;76.40